Alameda, OR

10:39 AM PST on March 06, 2015 (GMT -0800)
Concordia University | Change Station
CLOSE
Current Station
Personal Weather Station
Location: Portland, OR
Elevation: 141 ft
Nearby Weather Stations

Elev 141 ft 45.57 °N, 122.64 °W | Updated 8 seconds ago

Scattered Clouds
Scattered Clouds
52.0 °F
Feels Like 52.0 °F
N
0.0
Wind Variable Wind from North
Gusts 5.0 mph

Today
High -- | Low -- °F
--% Chance of Precip.
Yesterday
High -- | Low -- °F
Precip. -- in
6:40 AM 6:04 PM
Full, 99% visible
Pressure 30.43 in
Visibility 10.0 miles
Clouds Scattered Clouds 25000 ft
Dew Point 40 °F
Humidity 64%
Rainfall in
Snow Depth Not available.
UV 2 out of 12
Pollen 5.10 out of 12
Air Quality Not available.
Flu Activity Not available.
METAR KPDX 061753Z 00000KT 10SM SCT250 09/04 A3043 RMK AO2 SLP304 T00890039 10089 20017 51010

More Conditions Fewer Conditions

Pressure 30.43 in
Visibility 10.0 miles
Clouds Scattered Clouds 25000 ft
Dew Point 40 °F
Humidity 64%
Rainfall in
Snow Depth Not available.
UV 2 out of 12
Pollen 5.10 out of 12
Air Quality Not available.
Flu Activity Not available.
METAR KPDX 061753Z 00000KT 10SM SCT250 09/04 A3043 RMK AO2 SLP304 T00890039 10089 20017 51010

More Conditions Fewer Conditions

10-Day Weather Forecast

Almanac

Astronomy

Mar. 06, 2015 Rise Set
Actual Time
Civil Twilight
Nautical Twilight
Astronomical Twilight
Moon
Length of Visible Light
Length of Day
Tomorrow will be .
, % of the Moon is Illuminated

Today's Extremes

State Highs State Lows

Community

WunderPhotos

Upload Photos

1,803,367 photos uploaded!

WunderBlogs® & News

Nearby

Air Quality

  Air Quality AQ Index Pollutant
Not available.

Snow Depth

Station Depth Elevation

Earthquake Activity

City Distance Mag. Time & Date
Minimum magnitude displayed is 2.5.

Coastal Water Temperatures

Place Temperature

Nearby Weather Stations